Terminal Aerodrome Forecast
Issued by NWS

Home | Current Version | Previous Version | Text Only | Print | Product List | Glossary On
Versions: 1 2 3 4 5 6 7 8 9 10 11 12 13 14 15 16 17 18 19 20 21 22 23 24
000
FTUS43 KMQT 310523
TAFIWD
TAF
KIWD 310523Z 3106/0106 VRB04KT P6SM SKC
     FM311300 25006KT P6SM SKC
     FM311400 27007KT P6SM SKC
     FM312300 25005KT P6SM FEW150
     FM010400 VRB04KT P6SM FEW180
     FM010500 19005KT P6SM FEW200=

USA.gov is the U.S. government's official web portal to all federal, state and local government web resources and services.